首页
METAR-TAF:

METAR-TAF

机场 :

巴黎夏尔·戴高乐机场

巴黎戴高乐, 法国

纬度: 49-01N, 经度: 002-32E, 海拔: 118米

当前天气观测

该预报发布于17分钟前的21:30 UTC
风速7节,风向
温度 21°C
湿度 56%
气压 1024 hPa
能见度10公里或以上
1500米以下无云,无积雨云

METAR: LFPG 212130Z 36007KT CAVOK 21/12 Q1024 NOSIG

时间: 23:47 (21:47 UTC)

预报

该预报发布于4小时和47分钟前的17:00 UTC
预报有效从21日的 18点(UTC)到 22日的 24点(UTC)
风速5节,风向西北
能见度10公里或以上
1500米以下无云,无积雨云
成为
从 21日的 20点(UTC)到 21日的 22点(UTC)
风速5节,风向北转东北

TAF: LFPG 211700Z 2118/2224 32005KT CAVOK TX32/2215Z TN16/2204Z BECMG 2120/2122 02005KT

超过4000个机场的气象观测和天气预报(METAR&TAF报告)。

可查询的气象台以黄色和红色小点在地图上表示。

将鼠标移到小点上方,可查看气象台名称。

然后点击查看天气观测和预报。

如需切换地图:点击带黑十字的绿色按钮放大地图;点击带横线的绿色按钮缩小地图;或者点击绿色箭头查看邻近地区的地图。


METAR-TAF: